Latest Coastal Weather Observations for Hamilton Island

IDQ60701

Issued at 11:21 pm EST Saturday 16 February 2019 (issued every 10 minutes, with the page automatically refreshed every 10 minutes)

About coastal observations | Map of coastal stations | Coastal observations for QLD | Marine services | Other Formats
Station Details ID: 033106 Name: HAMILTON ISLAND AIRPORT Lat: -20.37 Lon: 148.95 Height: 58.66 m
Data from the previous 72 hours. | See also: Recent months at Hamilton Island
Date/Time
EST
Wind Sea
Height
m
Swell Vis
km
Cloud Weather Temp
°C
Press
hPa
Rain since
9am
mm
Dir  Spd
kts
Gust
kts
Height
m
Period
s
Dir
16/11:00pm ESE 19 24 - - - - 10 Partly cloudy - 26.3 1012.0 0.4
16/10:30pm ESE 18 22 - - - - 10 Partly cloudy - 26.3 1012.0 0.4
16/10:00pm ESE 19 21 - - - - 10 Partly cloudy - 26.3 1011.8 0.4
16/09:30pm ESE 15 17 - - - - 10 Partly cloudy - 26.5 1011.9 0.4
16/09:00pm ESE 16 19 - - - - 10 Cloudy - 26.3 1011.7 0.4
16/08:30pm ESE 13 16 - - - - 10 Partly cloudy - 26.2 1011.7 0.4
16/08:00pm ESE 16 20 - - - - 10 Partly cloudy - 26.2 1011.5 0.4
16/07:55pm ESE 15 19 - - - - 10 Partly cloudy - 26.2 1011.5 0.4
16/07:33pm ESE 14 16 - - - - 10 Partly cloudy - 26.2 1011.2 0.4
16/07:30pm ESE 14 17 - - - - 10 Partly cloudy - 26.2 1011.2 0.4
16/07:00pm E 19 22 - - - - 10 - - 26.4 1010.7 0.4
16/06:30pm ESE 20 23 - - - - 10 - - 26.3 1010.4 0.4
16/06:00pm E 20 23 - - - - 10 Partly cloudy - 26.6 1010.3 0.4
16/05:30pm ESE 21 25 - - - - 10 - - 26.5 1010.2 0.4
16/05:00pm ESE 22 25 - - - - 10 - - 26.9 1010.0 0.4
16/04:30pm ESE 24 27 - - - - 10 - - 26.8 1010.1 0.4
16/04:00pm ESE 23 27 - - - - 10 Partly cloudy - 27.3 1010.2 0.4
16/03:30pm ESE 26 31 - - - - 10 - - 27.6 1010.3 0.4
16/03:00pm ESE 23 28 - - - - 10 Mostly clear - 28.1 1010.6 0.4
16/02:30pm ESE 23 26 - - - - 10 Partly cloudy - 28.2 1011.0 0.4
16/02:00pm ESE 23 26 - - - - 10 Partly cloudy - 28.3 1011.3 0.4
16/01:30pm SE 23 26 - - - - 10 - - 28.4 1011.6 0.4
16/01:00pm SE 24 27 - - - - 10 Partly cloudy - 28.4 1012.0 0.4
16/12:30pm SE 23 26 - - - - 10 Partly cloudy - 28.2 1012.4 0.4
16/12:00pm SE 24 27 - - - - 10 Mostly clear - 27.9 1012.9 0.4
16/11:30am SE 23 27 - - - - 10 Partly cloudy - 28.3 1013.2 0.4
16/11:00am SE 23 26 - - - - 10 Partly cloudy - 28.3 1013.4 0.4
16/10:30am SE 18 23 - - - - 10 Partly cloudy - 28.3 1013.8 0.4
16/10:00am SSE 16 22 - - - - 10 Partly cloudy - 26.5 1014.0 0.0
16/09:30am SE 18 25 - - - - 10 Partly cloudy - 27.4 1013.7 0.0
16/09:00am SE 19 22 - - - - 10 Cloudy - 27.8 1013.7 0.0
16/08:30am SE 18 20 - - - - 10 Partly cloudy - 27.2 1013.6 0.0
16/08:00am SE 15 18 - - - - 10 Partly cloudy - 27.5 1013.5 0.0
16/07:30am ESE 17 21 - - - - 10 - - 26.7 1013.3 0.0
16/07:00am ESE 16 19 - - - - 10 Partly cloudy - 26.4 1013.0 0.0
16/06:30am ESE 18 21 - - - - 10 Partly cloudy - 26.2 1012.7 0.0
16/06:00am ESE 19 22 - - - - 10 Mostly clear - 25.9 1012.4 0.0
16/05:32am ESE 20 30 - - - - 10 Partly cloudy - 26.2 1012.1 0.0
16/05:30am ESE 20 24 - - - - 10 Partly cloudy - 26.4 1012.2 0.0
16/05:00am ESE 16 18 - - - - 10 Partly cloudy - 26.1 1012.1 0.0
16/04:30am ESE 17 19 - - - - 10 Partly cloudy - 25.8 1011.8 0.0
16/04:00am ESE 19 22 - - - - 10 Partly cloudy - 26.5 1011.5 0.0
16/03:30am ESE 17 20 - - - - 10 Partly cloudy - 26.5 1011.4 0.0
16/03:00am ESE 16 18 - - - - 10 Mostly clear - 26.4 1011.5 0.0
16/02:30am ESE 18 21 - - - - 10 Partly cloudy - 26.6 1011.5 0.0
16/02:00am ESE 18 23 - - - - 10 Partly cloudy - 26.6 1011.7 0.0
16/01:30am ESE 16 19 - - - - 10 Partly cloudy - 26.6 1012.0 0.0
16/01:00am SE 15 18 - - - - 10 Partly cloudy - 26.6 1012.5 0.0
16/12:30am ESE 17 20 - - - - 10 Partly cloudy - 26.7 1012.6 0.0
16/12:00am ESE 15 18 - - - - 10 Partly cloudy - 26.8 1012.9 0.0
 
Date/Time
EST
Wind Sea
Height
m
Swell Vis
km
Cloud Weather Temp
°C
Press
hPa
Rain since
9am
mm
Dir  Spd
kts
Gust
kts
Height
m
Period
s
Dir
15/11:30pm ESE 19 23 - - - - 10 Partly cloudy - 27.0 1013.1 0.0
15/11:00pm ESE 17 19 - - - - 10 Partly cloudy - 27.0 1013.2 0.0
15/10:30pm ESE 14 17 - - - - 10 Partly cloudy - 26.9 1013.2 0.0
15/10:00pm ESE 17 21 - - - - 10 Partly cloudy - 26.9 1013.1 0.0
15/09:30pm ESE 17 22 - - - - 10 Partly cloudy - 27.1 1013.1 0.0
15/09:00pm ESE 18 21 - - - - 10 Partly cloudy - 27.0 1013.0 0.0
15/08:30pm ESE 21 25 - - - - 10 - - 27.1 1012.9 0.0
15/08:00pm ESE 19 23 - - - - 10 Partly cloudy - 27.0 1012.7 0.0
15/07:30pm ESE 19 22 - - - - 10 Partly cloudy - 27.0 1012.4 0.0
15/07:00pm ESE 17 21 - - - - 10 Partly cloudy - 27.1 1012.3 0.0
15/06:30pm ESE 22 26 - - - - 10 Partly cloudy - 27.3 1012.0 0.0
15/06:00pm ESE 19 23 - - - - 10 - - 27.4 1011.8 0.0
15/05:30pm ESE 21 25 - - - - 10 - - 27.7 1011.5 0.0
15/05:00pm ESE 22 25 - - - - 10 Partly cloudy - 28.0 1011.4 0.0
15/04:30pm ESE 20 23 - - - - 10 - - 28.2 1011.3 0.0
15/04:00pm ESE 20 23 - - - - 10 - - 28.5 1011.3 0.0
15/03:30pm ESE 18 20 - - - - 10 - - 28.6 1011.4 0.0
15/03:00pm ESE 19 22 - - - - 10 Mostly clear - 28.9 1011.8 0.0
15/02:30pm ESE 19 22 - - - - 10 - - 29.2 1011.9 0.0
15/02:00pm ESE 17 20 - - - - 10 Partly cloudy - 29.2 1012.1 0.0
15/01:30pm ESE 19 22 - - - - 10 Partly cloudy - 29.6 1012.5 0.0
15/01:00pm ESE 18 21 - - - - 10 Partly cloudy - 29.4 1012.6 0.0
15/12:30pm ESE 17 20 - - - - 10 Partly cloudy - 29.7 1012.9 0.0
15/12:00pm SE 17 20 - - - - 10 Mostly cloudy - 28.6 1013.3 0.0
15/11:30am SE 16 18 - - - - 10 Partly cloudy - 29.6 1013.5 0.0
15/11:00am SE 15 17 - - - - 10 Partly cloudy - 29.7 1013.8 0.0
15/10:30am SE 15 18 - - - - 10 Partly cloudy - 28.2 1013.9 0.0
15/10:00am SE 16 19 - - - - 10 Partly cloudy - 29.1 1013.9 0.0
15/09:30am SE 17 20 - - - - 10 Partly cloudy - 28.7 1013.8 0.0
15/09:00am SE 15 19 - - - - 10 Partly cloudy - 27.9 1013.6 0.0
15/08:30am SE 16 19 - - - - 10 Partly cloudy - 28.2 1013.2 0.0
15/08:00am SE 16 18 - - - - 10 - - 28.1 1013.0 0.0
15/07:30am SE 14 16 - - - - 10 - - 27.7 1012.7 0.0
15/07:00am SE 15 17 - - - - 10 Partly cloudy - 27.2 1012.4 0.0
15/06:30am SE 14 16 - - - - 10 - - 26.4 1011.9 0.0
15/06:00am SE 15 17 - - - - 10 Mostly clear - 26.3 1011.6 0.0
15/05:30am SE 14 16 - - - - 10 Partly cloudy - 26.3 1011.4 0.0
15/05:00am ESE 12 13 - - - - 10 - - 26.4 1011.0 0.0
15/04:30am ESE 11 13 - - - - 10 Partly cloudy - 26.5 1010.9 0.0
15/04:00am ESE 13 16 - - - - 10 Partly cloudy - 26.5 1010.9 0.0
15/03:30am ESE 15 16 - - - - 10 Partly cloudy - 26.6 1010.9 0.0
15/03:00am ESE 14 16 - - - - 10 Mostly clear - 26.6 1010.7 0.0
15/02:30am ESE 13 15 - - - - 10 - - 26.7 1010.7 0.0
15/02:00am ESE 16 18 - - - - 10 - - 26.7 1010.7 0.0
15/01:30am ESE 15 17 - - - - 10 - - 26.8 1010.9 0.0
15/01:00am ESE 17 19 - - - - 10 - - 26.9 1011.1 0.0
15/12:30am E 16 18 - - - - 10 Partly cloudy - 26.9 1011.3 0.0
15/12:00am ESE 16 18 - - - - 10 Mostly clear - 27.0 1011.5 0.0
 
Date/Time
EST
Wind Sea
Height
m
Swell Vis
km
Cloud Weather Temp
°C
Press
hPa
Rain since
9am
mm
Dir  Spd
kts
Gust
kts
Height
m
Period
s
Dir
14/11:30pm E 18 21 - - - - 10 Partly cloudy - 27.1 1011.5 0.0
14/11:00pm E 17 20 - - - - 10 Partly cloudy - 27.1 1011.4 0.0
14/10:55pm E 19 23 - - - - 10 Partly cloudy - 27.1 1011.3 0.0
14/10:42pm E 20 23 - - - - 10 Partly cloudy - 27.4 1011.3 0.0
14/10:30pm ESE 20 22 - - - - 10 Partly cloudy - 27.2 1011.1 0.0
14/10:20pm ESE 19 22 - - - - 10 Partly cloudy - 27.3 1011.1 0.0
14/10:09pm ESE 21 22 - - - - 10 Partly cloudy - 27.3 1011.2 0.0
14/10:00pm ESE 20 24 - - - - 10 Partly cloudy - 27.3 1011.2 0.0
14/09:30pm ESE 20 23 - - - - 10 Partly cloudy - 27.4 1011.1 0.0
14/09:04pm E 20 23 - - - - 10 Partly cloudy - 27.4 1010.7 0.0
14/09:00pm E 20 23 - - - - 10 Mostly clear - 27.3 1010.6 0.0
14/08:44pm ESE 17 21 - - - - 10 Partly cloudy - 27.4 1010.3 0.0
14/08:30pm E 19 21 - - - - 10 Partly cloudy - 27.5 1010.2 0.0
14/08:00pm E 17 19 - - - - 10 - - 27.6 1009.6 0.0
14/07:30pm E 18 22 - - - - 10 Partly cloudy - 27.6 1009.2 0.0
14/07:00pm E 16 19 - - - - 10 - - 27.6 1008.8 0.0
14/06:30pm E 19 22 - - - - 10 Partly cloudy - 27.7 1008.2 0.0
14/06:00pm E 18 20 - - - - 10 Mostly clear - 27.9 1008.0 0.0
14/05:30pm E 17 20 - - - - 10 - - 28.3 1007.6 0.0
14/05:00pm E 17 21 - - - - 10 - - 28.4 1007.3 0.0
14/04:30pm E 18 21 - - - - 10 - - 28.5 1007.1 0.0
14/04:00pm E 18 21 - - - - 10 - - 28.7 1007.1 0.0
14/03:30pm E 15 17 - - - - 10 - - 29.2 1007.1 0.0
14/03:00pm ESE 12 14 - - - - 10 - - 29.6 1007.1 0.0
14/02:30pm SE 13 14 - - - - 10 - - 29.9 1007.2 0.0
14/02:00pm SE 11 13 - - - - 10 Partly cloudy - 29.5 1007.3 0.0
14/01:30pm ESE 10 12 - - - - 10 - - 29.9 1007.6 0.0
14/01:00pm ESE 12 13 - - - - 10 - - 29.7 1007.8 0.0
14/12:30pm ESE 12 13 - - - - 10 Partly cloudy - 29.7 1008.0 0.0
14/12:00pm ESE 13 14 - - - - 10 Partly cloudy - 29.8 1008.3 0.0
14/11:30am ESE 11 13 - - - - 10 Partly cloudy - 29.7 1008.2 0.0
14/11:00am ESE 9 10 - - - - 10 - - 29.5 1008.4 0.0
14/10:30am ESE 7 9 - - - - 10 - - 29.5 1008.5 0.0
14/10:00am ESE 9 10 - - - - 10 - - 29.6 1008.2 0.0
14/09:30am E 9 10 - - - - 10 - - 29.1 1008.2 0.0
14/09:00am E 9 10 - - - - 10 Mostly clear - 28.6 1007.9 0.0
14/08:54am E 10 12 - - - - 10 Partly cloudy - 28.8 1007.9 0.0
14/08:33am E 10 12 - - - - 10 Partly cloudy - 28.7 1007.4 0.0
14/08:31am E 9 12 - - - - 10 Partly cloudy - 28.6 1007.5 0.0
14/08:30am E 9 12 - - - - 10 Partly cloudy - 28.6 1007.6 0.0
14/08:19am ESE 9 12 - - - - 10 Partly cloudy - 28.6 1007.6 0.0
14/08:05am SE 10 14 - - - - 10 Partly cloudy - 28.0 1007.4 0.0
14/08:00am SE 9 14 - - - - 10 Partly cloudy - 27.9 1007.3 0.0
14/07:51am SE 10 16 - - - - 10 Partly cloudy - 27.5 1006.9 0.0
14/07:30am SSE 8 15 - - - - 10 Partly cloudy - 27.4 1006.8 0.0
14/07:00am SW 4 5 - - - - 10 - - 26.9 1006.4 0.0
14/06:30am NE 4 7 - - - - 10 - - 26.0 1006.4 0.0
14/06:00am NE 2 5 - - - - 10 - - 25.6 1005.8 0.0
14/05:30am E 5 6 - - - - 10 - - 25.6 1005.6 0.0
14/05:00am E 4 5 - - - - 10 - - 25.8 1005.0 0.0
14/04:30am SW 4 5 - - - - 10 - - 25.9 1004.9 0.0
14/04:00am N 5 7 - - - - 10 - - 26.2 1004.6 0.0
14/03:30am E 4 7 - - - - 10 - - 26.0 1004.4 0.0
14/03:00am N 2 5 - - - - 10 - - 25.8 1004.5 0.0
14/02:30am SSW 5 5 - - - - 10 - - 26.7 1004.5 0.0
14/02:00am WSW 3 4 - - - - 10 - - 26.4 1004.7 0.0
14/01:30am SSW 4 5 - - - - 10 - - 26.7 1004.9 0.0
14/01:00am WSW 4 6 - - - - 10 - - 26.2 1005.1 0.0
14/12:30am S 4 5 - - - - 10 - - 26.5 1005.3 0.0
14/12:00am SSE 3 4 - - - - 10 - - 26.4 1005.5 0.0
 
Date/Time
EST
Wind Sea
Height
m
Swell Vis
km
Cloud Weather Temp
°C
Press
hPa
Rain since
9am
mm
Dir  Spd
kts
Gust
kts
Height
m
Period
s
Dir
13/11:30pm ESE 5 6 - - - - 10 - - 26.7 1005.8 0.0

Other Formats:

Comma delimited format used in spreadsheet applications
http://www.bom.gov.au/fwo/IDQ60701/IDQ60701.94368.axf

JavaScript Object Notation format (JSON) in row-major order
http://www.bom.gov.au/fwo/IDQ60701/IDQ60701.94368.json